sensor_id;sensor_type;location;lat;lon;timestamp;P1;durP1;ratioP1;P2;durP2;ratioP2
68234;SDS011;55052;52.056;5.296;2023-05-25T00:02:17;9.45;;;3.63;;
68234;SDS011;55052;52.056;5.296;2023-05-25T00:04:45;9.63;;;3.60;;
68234;SDS011;55052;52.056;5.296;2023-05-25T00:07:13;8.07;;;3.50;;
68234;SDS011;55052;52.056;5.296;2023-05-25T00:09:41;8.35;;;3.40;;
68234;SDS011;55052;52.056;5.296;2023-05-25T00:12:12;10.68;;;3.97;;
68234;SDS011;55052;52.056;5.296;2023-05-25T00:14:39;9.77;;;3.50;;
68234;SDS011;55052;52.056;5.296;2023-05-25T00:17:06;9.93;;;4.05;;
68234;SDS011;55052;52.056;5.296;2023-05-25T00:19:35;11.50;;;4.25;;
68234;SDS011;55052;52.056;5.296;2023-05-25T00:22:09;10.02;;;3.72;;
68234;SDS011;55052;52.056;5.296;2023-05-25T00:24:38;9.93;;;4.15;;
68234;SDS011;55052;52.056;5.296;2023-05-25T00:27:05;10.50;;;4.45;;
68234;SDS011;55052;52.056;5.296;2023-05-25T00:29:34;7.53;;;3.55;;
68234;SDS011;55052;52.056;5.296;2023-05-25T00:32:01;13.30;;;4.13;;
68234;SDS011;55052;52.056;5.296;2023-05-25T00:34:28;11.32;;;3.97;;
68234;SDS011;55052;52.056;5.296;2023-05-25T00:36:55;14.55;;;3.90;;
68234;SDS011;55052;52.056;5.296;2023-05-25T00:39:22;8.48;;;3.67;;
68234;SDS011;55052;52.056;5.296;2023-05-25T00:41:49;15.13;;;4.55;;
68234;SDS011;55052;52.056;5.296;2023-05-25T00:44:16;11.23;;;4.03;;
68234;SDS011;55052;52.056;5.296;2023-05-25T00:46:48;9.90;;;3.72;;
68234;SDS011;55052;52.056;5.296;2023-05-25T00:49:18;8.52;;;3.50;;
68234;SDS011;55052;52.056;5.296;2023-05-25T00:51:46;8.57;;;3.45;;
68234;SDS011;55052;52.056;5.296;2023-05-25T00:54:14;9.98;;;3.50;;
68234;SDS011;55052;52.056;5.296;2023-05-25T00:56:43;11.32;;;3.90;;
68234;SDS011;55052;52.056;5.296;2023-05-25T00:59:35;7.93;;;3.35;;
68234;SDS011;55052;52.056;5.296;2023-05-25T01:02:09;9.25;;;3.55;;
68234;SDS011;55052;52.056;5.296;2023-05-25T01:04:59;12.00;;;4.00;;
68234;SDS011;55052;52.056;5.296;2023-05-25T01:07:27;10.00;;;4.15;;
68234;SDS011;55052;52.056;5.296;2023-05-25T01:09:57;8.63;;;3.70;;
68234;SDS011;55052;52.056;5.296;2023-05-25T01:12:27;12.75;;;4.07;;
68234;SDS011;55052;52.056;5.296;2023-05-25T01:14:55;9.40;;;4.00;;
68234;SDS011;55052;52.056;5.296;2023-05-25T01:17:23;8.68;;;3.47;;
68234;SDS011;55052;52.056;5.296;2023-05-25T01:19:51;11.02;;;3.70;;
68234;SDS011;55052;52.056;5.296;2023-05-25T01:22:52;8.15;;;3.53;;
68234;SDS011;55052;52.056;5.296;2023-05-25T01:25:24;10.95;;;3.72;;
68234;SDS011;55052;52.056;5.296;2023-05-25T01:28:03;10.27;;;3.95;;
68234;SDS011;55052;52.056;5.296;2023-05-25T01:30:35;9.38;;;3.78;;
68234;SDS011;55052;52.056;5.296;2023-05-25T01:33:04;9.10;;;3.55;;
68234;SDS011;55052;52.056;5.296;2023-05-25T01:35:32;11.50;;;3.58;;
68234;SDS011;55052;52.056;5.296;2023-05-25T01:38:00;8.63;;;3.88;;
68234;SDS011;55052;52.056;5.296;2023-05-25T01:40:27;13.32;;;3.80;;
68234;SDS011;55052;52.056;5.296;2023-05-25T01:42:54;7.75;;;3.42;;
68234;SDS011;55052;52.056;5.296;2023-05-25T01:45:21;8.63;;;3.05;;
68234;SDS011;55052;52.056;5.296;2023-05-25T01:53:42;10.15;;;3.63;;
68234;SDS011;55052;52.056;5.296;2023-05-25T01:56:12;8.43;;;3.75;;
68234;SDS011;55052;52.056;5.296;2023-05-25T01:58:43;7.50;;;3.13;;
68234;SDS011;55052;52.056;5.296;2023-05-25T02:01:13;7.65;;;3.33;;
68234;SDS011;55052;52.056;5.296;2023-05-25T02:03:40;6.95;;;3.20;;
68234;SDS011;55052;52.056;5.296;2023-05-25T02:06:09;7.72;;;3.28;;
68234;SDS011;55052;52.056;5.296;2023-05-25T02:08:37;6.53;;;3.42;;
68234;SDS011;55052;52.056;5.296;2023-05-25T02:11:04;8.63;;;3.78;;
68234;SDS011;55052;52.056;5.296;2023-05-25T02:13:31;9.75;;;3.40;;
68234;SDS011;55052;52.056;5.296;2023-05-25T02:15:57;10.10;;;3.60;;
68234;SDS011;55052;52.056;5.296;2023-05-25T02:18:24;8.13;;;3.97;;
68234;SDS011;55052;52.056;5.296;2023-05-25T02:20:51;8.50;;;3.50;;
68234;SDS011;55052;52.056;5.296;2023-05-25T02:23:18;12.10;;;4.10;;
68234;SDS011;55052;52.056;5.296;2023-05-25T02:25:45;10.82;;;3.50;;
68234;SDS011;55052;52.056;5.296;2023-05-25T02:28:13;9.93;;;3.80;;
68234;SDS011;55052;52.056;5.296;2023-05-25T02:30:40;5.25;;;3.17;;
68234;SDS011;55052;52.056;5.296;2023-05-25T02:33:06;9.55;;;3.90;;
68234;SDS011;55052;52.056;5.296;2023-05-25T02:35:34;8.07;;;3.65;;
68234;SDS011;55052;52.056;5.296;2023-05-25T02:38:00;8.57;;;3.72;;
68234;SDS011;55052;52.056;5.296;2023-05-25T02:40:27;7.00;;;3.63;;
68234;SDS011;55052;52.056;5.296;2023-05-25T02:42:54;10.02;;;3.55;;
68234;SDS011;55052;52.056;5.296;2023-05-25T02:45:21;8.88;;;3.55;;
68234;SDS011;55052;52.056;5.296;2023-05-25T02:47:48;7.13;;;3.42;;
68234;SDS011;55052;52.056;5.296;2023-05-25T02:50:15;6.82;;;3.40;;
68234;SDS011;55052;52.056;5.296;2023-05-25T02:52:41;7.05;;;3.33;;
68234;SDS011;55052;52.056;5.296;2023-05-25T02:55:08;9.60;;;3.58;;
68234;SDS011;55052;52.056;5.296;2023-05-25T02:57:38;7.18;;;3.67;;
68234;SDS011;55052;52.056;5.296;2023-05-25T03:00:05;8.55;;;3.30;;
68234;SDS011;55052;52.056;5.296;2023-05-25T03:02:32;10.05;;;3.85;;
68234;SDS011;55052;52.056;5.296;2023-05-25T03:05:00;7.15;;;3.80;;
68234;SDS011;55052;52.056;5.296;2023-05-25T03:07:29;8.68;;;3.35;;
68234;SDS011;55052;52.056;5.296;2023-05-25T03:09:56;7.70;;;3.40;;
68234;SDS011;55052;52.056;5.296;2023-05-25T03:12:24;7.32;;;3.65;;
68234;SDS011;55052;52.056;5.296;2023-05-25T03:14:51;9.75;;;3.97;;
68234;SDS011;55052;52.056;5.296;2023-05-25T03:17:18;7.60;;;3.65;;
68234;SDS011;55052;52.056;5.296;2023-05-25T03:19:45;8.18;;;3.20;;
68234;SDS011;55052;52.056;5.296;2023-05-25T03:22:11;10.38;;;3.78;;
68234;SDS011;55052;52.056;5.296;2023-05-25T03:24:38;9.73;;;3.67;;
68234;SDS011;55052;52.056;5.296;2023-05-25T03:27:07;7.97;;;3.63;;
68234;SDS011;55052;52.056;5.296;2023-05-25T03:29:34;8.50;;;3.60;;
68234;SDS011;55052;52.056;5.296;2023-05-25T03:32:01;11.00;;;3.50;;
68234;SDS011;55052;52.056;5.296;2023-05-25T03:34:28;6.63;;;3.30;;
68234;SDS011;55052;52.056;5.296;2023-05-25T03:36:55;9.35;;;4.18;;
68234;SDS011;55052;52.056;5.296;2023-05-25T03:39:22;7.85;;;3.40;;
68234;SDS011;55052;52.056;5.296;2023-05-25T03:41:48;9.48;;;3.80;;
68234;SDS011;55052;52.056;5.296;2023-05-25T03:44:16;7.78;;;4.03;;
68234;SDS011;55052;52.056;5.296;2023-05-25T03:46:43;9.63;;;3.78;;
68234;SDS011;55052;52.056;5.296;2023-05-25T03:49:10;8.68;;;3.78;;
68234;SDS011;55052;52.056;5.296;2023-05-25T03:51:39;7.72;;;3.50;;
68234;SDS011;55052;52.056;5.296;2023-05-25T03:54:06;10.80;;;3.72;;
68234;SDS011;55052;52.056;5.296;2023-05-25T03:56:33;8.55;;;3.80;;
68234;SDS011;55052;52.056;5.296;2023-05-25T03:59:00;8.68;;;3.75;;
68234;SDS011;55052;52.056;5.296;2023-05-25T04:01:27;8.57;;;3.50;;
68234;SDS011;55052;52.056;5.296;2023-05-25T04:03:55;7.07;;;3.42;;
68234;SDS011;55052;52.056;5.296;2023-05-25T04:06:22;8.35;;;3.90;;
68234;SDS011;55052;52.056;5.296;2023-05-25T04:08:51;9.05;;;3.92;;
68234;SDS011;55052;52.056;5.296;2023-05-25T04:11:18;8.05;;;3.67;;
68234;SDS011;55052;52.056;5.296;2023-05-25T04:13:46;7.97;;;3.47;;
68234;SDS011;55052;52.056;5.296;2023-05-25T04:16:12;10.07;;;4.05;;
68234;SDS011;55052;52.056;5.296;2023-05-25T04:18:40;7.85;;;3.80;;
68234;SDS011;55052;52.056;5.296;2023-05-25T04:21:06;7.63;;;3.55;;
68234;SDS011;55052;52.056;5.296;2023-05-25T04:23:33;9.02;;;3.55;;
68234;SDS011;55052;52.056;5.296;2023-05-25T04:26:00;6.75;;;3.38;;
68234;SDS011;55052;52.056;5.296;2023-05-25T04:28:27;7.13;;;3.72;;
68234;SDS011;55052;52.056;5.296;2023-05-25T04:30:54;7.63;;;4.13;;
68234;SDS011;55052;52.056;5.296;2023-05-25T04:33:22;7.22;;;3.70;;
68234;SDS011;55052;52.056;5.296;2023-05-25T04:35:49;10.48;;;3.72;;
68234;SDS011;55052;52.056;5.296;2023-05-25T04:38:16;7.72;;;3.58;;
68234;SDS011;55052;52.056;5.296;2023-05-25T04:40:43;7.57;;;3.53;;
68234;SDS011;55052;52.056;5.296;2023-05-25T04:43:11;8.60;;;4.05;;
68234;SDS011;55052;52.056;5.296;2023-05-25T04:45:38;8.43;;;3.65;;
68234;SDS011;55052;52.056;5.296;2023-05-25T04:48:05;8.07;;;3.75;;
68234;SDS011;55052;52.056;5.296;2023-05-25T04:50:32;9.48;;;4.20;;
68234;SDS011;55052;52.056;5.296;2023-05-25T04:52:59;9.68;;;4.07;;
68234;SDS011;55052;52.056;5.296;2023-05-25T04:55:26;8.38;;;3.70;;
68234;SDS011;55052;52.056;5.296;2023-05-25T04:57:53;6.60;;;3.50;;
68234;SDS011;55052;52.056;5.296;2023-05-25T05:00:20;9.10;;;4.10;;
68234;SDS011;55052;52.056;5.296;2023-05-25T05:02:47;8.80;;;3.95;;
68234;SDS011;55052;52.056;5.296;2023-05-25T05:05:15;11.15;;;3.90;;
68234;SDS011;55052;52.056;5.296;2023-05-25T05:07:42;9.07;;;4.80;;
68234;SDS011;55052;52.056;5.296;2023-05-25T05:10:09;10.07;;;4.60;;
68234;SDS011;55052;52.056;5.296;2023-05-25T05:12:36;12.57;;;4.53;;
68234;SDS011;55052;52.056;5.296;2023-05-25T05:15:03;11.43;;;4.68;;
68234;SDS011;55052;52.056;5.296;2023-05-25T05:17:30;11.38;;;4.82;;
68234;SDS011;55052;52.056;5.296;2023-05-25T05:19:57;11.18;;;5.32;;
68234;SDS011;55052;52.056;5.296;2023-05-25T05:22:24;9.38;;;4.63;;
68234;SDS011;55052;52.056;5.296;2023-05-25T05:24:50;8.98;;;5.00;;
68234;SDS011;55052;52.056;5.296;2023-05-25T05:27:17;20.77;;;6.00;;
68234;SDS011;55052;52.056;5.296;2023-05-25T05:29:44;15.70;;;5.85;;
68234;SDS011;55052;52.056;5.296;2023-05-25T05:32:11;10.90;;;5.50;;
68234;SDS011;55052;52.056;5.296;2023-05-25T05:34:38;13.73;;;5.93;;
68234;SDS011;55052;52.056;5.296;2023-05-25T05:37:05;11.77;;;5.47;;
68234;SDS011;55052;52.056;5.296;2023-05-25T05:39:31;14.23;;;5.30;;
68234;SDS011;55052;52.056;5.296;2023-05-25T05:41:58;13.43;;;5.47;;
68234;SDS011;55052;52.056;5.296;2023-05-25T05:44:26;14.32;;;5.38;;
68234;SDS011;55052;52.056;5.296;2023-05-25T05:46:55;18.52;;;5.63;;
68234;SDS011;55052;52.056;5.296;2023-05-25T05:49:29;14.38;;;5.50;;
68234;SDS011;55052;52.056;5.296;2023-05-25T05:51:57;12.10;;;5.13;;
68234;SDS011;55052;52.056;5.296;2023-05-25T05:54:24;11.15;;;5.88;;
68234;SDS011;55052;52.056;5.296;2023-05-25T05:56:53;16.65;;;6.50;;
68234;SDS011;55052;52.056;5.296;2023-05-25T05:59:20;18.58;;;5.80;;
68234;SDS011;55052;52.056;5.296;2023-05-25T06:01:47;11.07;;;5.53;;
68234;SDS011;55052;52.056;5.296;2023-05-25T06:04:14;17.15;;;6.60;;
68234;SDS011;55052;52.056;5.296;2023-05-25T06:06:41;16.45;;;6.90;;
68234;SDS011;55052;52.056;5.296;2023-05-25T06:09:10;16.15;;;6.32;;
68234;SDS011;55052;52.056;5.296;2023-05-25T06:11:37;15.02;;;6.82;;
68234;SDS011;55052;52.056;5.296;2023-05-25T06:14:05;18.35;;;7.05;;
68234;SDS011;55052;52.056;5.296;2023-05-25T06:16:32;15.80;;;6.22;;
68234;SDS011;55052;52.056;5.296;2023-05-25T06:18:59;15.20;;;6.40;;
68234;SDS011;55052;52.056;5.296;2023-05-25T06:21:26;18.08;;;6.72;;
68234;SDS011;55052;52.056;5.296;2023-05-25T06:23:53;16.20;;;6.35;;
68234;SDS011;55052;52.056;5.296;2023-05-25T06:26:22;17.75;;;6.22;;
68234;SDS011;55052;52.056;5.296;2023-05-25T06:28:50;15.50;;;6.85;;
68234;SDS011;55052;52.056;5.296;2023-05-25T06:31:16;13.70;;;5.72;;
68234;SDS011;55052;52.056;5.296;2023-05-25T06:33:44;16.58;;;6.05;;
68234;SDS011;55052;52.056;5.296;2023-05-25T06:36:11;17.52;;;6.18;;
68234;SDS011;55052;52.056;5.296;2023-05-25T06:38:41;22.70;;;6.32;;
68234;SDS011;55052;52.056;5.296;2023-05-25T06:41:08;13.10;;;6.07;;
68234;SDS011;55052;52.056;5.296;2023-05-25T06:43:38;13.90;;;6.35;;
68234;SDS011;55052;52.056;5.296;2023-05-25T06:46:05;22.60;;;5.90;;
68234;SDS011;55052;52.056;5.296;2023-05-25T06:48:31;11.27;;;5.13;;
68234;SDS011;55052;52.056;5.296;2023-05-25T06:50:58;16.80;;;5.72;;
68234;SDS011;55052;52.056;5.296;2023-05-25T06:53:25;15.00;;;5.38;;
68234;SDS011;55052;52.056;5.296;2023-05-25T06:55:52;19.17;;;5.47;;
68234;SDS011;55052;52.056;5.296;2023-05-25T06:58:19;13.02;;;5.50;;
68234;SDS011;55052;52.056;5.296;2023-05-25T07:00:45;14.98;;;4.90;;
68234;SDS011;55052;52.056;5.296;2023-05-25T07:03:12;13.32;;;4.97;;
68234;SDS011;55052;52.056;5.296;2023-05-25T07:05:39;13.68;;;5.00;;
68234;SDS011;55052;52.056;5.296;2023-05-25T07:08:06;10.90;;;4.57;;
68234;SDS011;55052;52.056;5.296;2023-05-25T07:10:33;12.77;;;4.80;;
68234;SDS011;55052;52.056;5.296;2023-05-25T07:13:00;16.52;;;5.00;;
68234;SDS011;55052;52.056;5.296;2023-05-25T07:15:27;15.05;;;6.32;;
68234;SDS011;55052;52.056;5.296;2023-05-25T07:17:54;9.75;;;4.88;;
68234;SDS011;55052;52.056;5.296;2023-05-25T07:20:22;12.50;;;4.75;;
68234;SDS011;55052;52.056;5.296;2023-05-25T07:22:49;12.90;;;5.00;;
68234;SDS011;55052;52.056;5.296;2023-05-25T07:25:18;9.55;;;4.78;;
68234;SDS011;55052;52.056;5.296;2023-05-25T07:27:48;11.77;;;4.90;;
68234;SDS011;55052;52.056;5.296;2023-05-25T07:30:20;12.02;;;4.45;;
68234;SDS011;55052;52.056;5.296;2023-05-25T07:32:47;11.80;;;4.22;;
68234;SDS011;55052;52.056;5.296;2023-05-25T07:35:14;12.55;;;4.10;;
68234;SDS011;55052;52.056;5.296;2023-05-25T07:37:40;13.93;;;4.78;;
68234;SDS011;55052;52.056;5.296;2023-05-25T07:40:07;12.45;;;5.05;;
68234;SDS011;55052;52.056;5.296;2023-05-25T07:42:35;11.07;;;4.57;;
68234;SDS011;55052;52.056;5.296;2023-05-25T07:45:01;12.27;;;4.82;;
68234;SDS011;55052;52.056;5.296;2023-05-25T07:47:28;14.50;;;4.95;;
68234;SDS011;55052;52.056;5.296;2023-05-25T07:49:55;13.77;;;4.70;;
68234;SDS011;55052;52.056;5.296;2023-05-25T07:52:22;14.98;;;4.70;;
68234;SDS011;55052;52.056;5.296;2023-05-25T07:54:49;12.95;;;5.07;;
68234;SDS011;55052;52.056;5.296;2023-05-25T07:57:16;11.30;;;4.43;;
68234;SDS011;55052;52.056;5.296;2023-05-25T07:59:43;14.43;;;5.13;;
68234;SDS011;55052;52.056;5.296;2023-05-25T08:02:10;17.00;;;4.38;;
68234;SDS011;55052;52.056;5.296;2023-05-25T08:04:37;12.07;;;5.10;;
68234;SDS011;55052;52.056;5.296;2023-05-25T08:07:04;7.95;;;3.92;;
68234;SDS011;55052;52.056;5.296;2023-05-25T08:09:31;13.43;;;4.68;;
68234;SDS011;55052;52.056;5.296;2023-05-25T08:11:57;15.18;;;5.72;;
68234;SDS011;55052;52.056;5.296;2023-05-25T08:14:45;13.63;;;4.97;;
68234;SDS011;55052;52.056;5.296;2023-05-25T08:17:11;13.23;;;4.80;;
68234;SDS011;55052;52.056;5.296;2023-05-25T08:19:38;14.23;;;5.00;;
68234;SDS011;55052;52.056;5.296;2023-05-25T08:22:05;15.40;;;5.70;;
68234;SDS011;55052;52.056;5.296;2023-05-25T08:24:32;12.90;;;4.38;;
68234;SDS011;55052;52.056;5.296;2023-05-25T08:26:59;9.40;;;4.60;;
68234;SDS011;55052;52.056;5.296;2023-05-25T08:29:27;10.82;;;4.25;;
68234;SDS011;55052;52.056;5.296;2023-05-25T08:31:54;10.20;;;3.97;;
68234;SDS011;55052;52.056;5.296;2023-05-25T08:34:21;13.05;;;4.55;;
68234;SDS011;55052;52.056;5.296;2023-05-25T08:36:48;12.25;;;4.80;;
68234;SDS011;55052;52.056;5.296;2023-05-25T08:39:15;11.18;;;4.07;;
68234;SDS011;55052;52.056;5.296;2023-05-25T08:41:43;13.02;;;3.78;;
68234;SDS011;55052;52.056;5.296;2023-05-25T08:44:10;11.50;;;4.80;;
68234;SDS011;55052;52.056;5.296;2023-05-25T08:46:37;11.50;;;3.80;;
68234;SDS011;55052;52.056;5.296;2023-05-25T08:49:13;14.60;;;4.38;;
68234;SDS011;55052;52.056;5.296;2023-05-25T08:51:42;10.70;;;3.88;;
68234;SDS011;55052;52.056;5.296;2023-05-25T08:54:16;8.82;;;3.25;;
68234;SDS011;55052;52.056;5.296;2023-05-25T08:56:51;10.40;;;3.60;;
68234;SDS011;55052;52.056;5.296;2023-05-25T09:05:19;15.88;;;4.05;;
68234;SDS011;55052;52.056;5.296;2023-05-25T09:07:46;11.48;;;3.30;;
68234;SDS011;55052;52.056;5.296;2023-05-25T09:10:15;11.60;;;3.42;;
68234;SDS011;55052;52.056;5.296;2023-05-25T09:12:42;8.32;;;2.90;;
68234;SDS011;55052;52.056;5.296;2023-05-25T09:15:09;9.68;;;3.25;;
68234;SDS011;55052;52.056;5.296;2023-05-25T09:17:37;12.65;;;3.38;;
68234;SDS011;55052;52.056;5.296;2023-05-25T09:20:07;11.05;;;3.33;;
68234;SDS011;55052;52.056;5.296;2023-05-25T09:22:39;10.60;;;2.92;;
68234;SDS011;55052;52.056;5.296;2023-05-25T09:25:07;9.73;;;3.00;;
68234;SDS011;55052;52.056;5.296;2023-05-25T09:27:36;9.70;;;3.03;;
68234;SDS011;55052;52.056;5.296;2023-05-25T09:30:04;9.60;;;3.30;;
68234;SDS011;55052;52.056;5.296;2023-05-25T09:32:31;12.48;;;3.13;;
68234;SDS011;55052;52.056;5.296;2023-05-25T09:35:08;11.27;;;3.63;;
68234;SDS011;55052;52.056;5.296;2023-05-25T09:37:39;9.90;;;3.03;;
68234;SDS011;55052;52.056;5.296;2023-05-25T09:40:07;9.68;;;3.40;;
68234;SDS011;55052;52.056;5.296;2023-05-25T09:42:36;10.13;;;3.50;;
68234;SDS011;55052;52.056;5.296;2023-05-25T09:45:03;11.68;;;3.53;;
68234;SDS011;55052;52.056;5.296;2023-05-25T09:47:31;10.32;;;3.38;;
68234;SDS011;55052;52.056;5.296;2023-05-25T09:52:28;9.48;;;3.08;;
68234;SDS011;55052;52.056;5.296;2023-05-25T09:54:56;8.30;;;3.42;;
68234;SDS011;55052;52.056;5.296;2023-05-25T09:57:23;7.90;;;2.90;;
68234;SDS011;55052;52.056;5.296;2023-05-25T09:59:53;9.73;;;3.20;;
68234;SDS011;55052;52.056;5.296;2023-05-25T10:02:19;8.70;;;3.28;;
68234;SDS011;55052;52.056;5.296;2023-05-25T10:04:46;10.30;;;3.45;;
68234;SDS011;55052;52.056;5.296;2023-05-25T10:07:13;11.52;;;3.47;;
68234;SDS011;55052;52.056;5.296;2023-05-25T10:09:42;11.45;;;3.67;;
68234;SDS011;55052;52.056;5.296;2023-05-25T10:12:12;10.43;;;3.33;;
68234;SDS011;55052;52.056;5.296;2023-05-25T10:14:43;8.68;;;2.80;;
68234;SDS011;55052;52.056;5.296;2023-05-25T10:17:11;11.70;;;3.15;;
68234;SDS011;55052;52.056;5.296;2023-05-25T10:19:45;8.65;;;2.80;;
68234;SDS011;55052;52.056;5.296;2023-05-25T10:22:18;8.45;;;3.25;;
68234;SDS011;55052;52.056;5.296;2023-05-25T10:27:23;11.77;;;3.40;;
68234;SDS011;55052;52.056;5.296;2023-05-25T10:29:55;9.43;;;3.10;;
68234;SDS011;55052;52.056;5.296;2023-05-25T10:32:23;11.65;;;3.30;;
68234;SDS011;55052;52.056;5.296;2023-05-25T10:34:51;11.30;;;3.20;;
68234;SDS011;55052;52.056;5.296;2023-05-25T10:37:18;13.07;;;3.40;;
68234;SDS011;55052;52.056;5.296;2023-05-25T10:39:45;9.52;;;3.03;;
68234;SDS011;55052;52.056;5.296;2023-05-25T10:42:16;9.68;;;3.00;;
68234;SDS011;55052;52.056;5.296;2023-05-25T10:44:44;10.82;;;3.40;;
68234;SDS011;55052;52.056;5.296;2023-05-25T10:47:11;9.98;;;3.20;;
68234;SDS011;55052;52.056;5.296;2023-05-25T10:49:52;14.07;;;3.70;;
68234;SDS011;55052;52.056;5.296;2023-05-25T10:52:25;6.85;;;3.00;;
68234;SDS011;55052;52.056;5.296;2023-05-25T10:54:56;8.45;;;3.10;;
68234;SDS011;55052;52.056;5.296;2023-05-25T10:57:26;9.02;;;2.78;;
68234;SDS011;55052;52.056;5.296;2023-05-25T10:59:54;9.13;;;2.85;;
68234;SDS011;55052;52.056;5.296;2023-05-25T11:02:27;9.25;;;2.88;;
68234;SDS011;55052;52.056;5.296;2023-05-25T11:07:52;9.07;;;3.22;;
68234;SDS011;55052;52.056;5.296;2023-05-25T11:18:44;7.75;;;2.78;;
68234;SDS011;55052;52.056;5.296;2023-05-25T11:24:01;7.78;;;2.80;;
68234;SDS011;55052;52.056;5.296;2023-05-25T11:26:35;6.88;;;3.20;;
68234;SDS011;55052;52.056;5.296;2023-05-25T11:29:13;7.30;;;3.00;;
68234;SDS011;55052;52.056;5.296;2023-05-25T11:31:40;5.53;;;2.53;;
68234;SDS011;55052;52.056;5.296;2023-05-25T11:34:09;8.93;;;2.85;;
68234;SDS011;55052;52.056;5.296;2023-05-25T11:36:37;9.68;;;4.57;;
68234;SDS011;55052;52.056;5.296;2023-05-25T11:39:04;9.45;;;3.88;;
68234;SDS011;55052;52.056;5.296;2023-05-25T11:41:47;11.23;;;3.22;;
68234;SDS011;55052;52.056;5.296;2023-05-25T11:44:27;11.50;;;3.38;;
68234;SDS011;55052;52.056;5.296;2023-05-25T11:46:55;10.90;;;3.75;;
68234;SDS011;55052;52.056;5.296;2023-05-25T11:49:26;8.98;;;3.72;;
68234;SDS011;55052;52.056;5.296;2023-05-25T11:51:55;12.23;;;3.65;;
68234;SDS011;55052;52.056;5.296;2023-05-25T11:56:54;8.60;;;3.17;;
68234;SDS011;55052;52.056;5.296;2023-05-25T11:59:24;10.63;;;3.53;;
68234;SDS011;55052;52.056;5.296;2023-05-25T12:02:00;11.45;;;3.80;;
68234;SDS011;55052;52.056;5.296;2023-05-25T12:04:29;8.23;;;3.55;;
68234;SDS011;55052;52.056;5.296;2023-05-25T12:07:03;9.93;;;2.80;;
68234;SDS011;55052;52.056;5.296;2023-05-25T12:09:31;9.05;;;3.42;;
68234;SDS011;55052;52.056;5.296;2023-05-25T12:11:58;10.32;;;3.33;;
68234;SDS011;55052;52.056;5.296;2023-05-25T12:14:25;7.88;;;2.83;;
68234;SDS011;55052;52.056;5.296;2023-05-25T12:16:52;10.38;;;3.33;;
68234;SDS011;55052;52.056;5.296;2023-05-25T12:19:21;8.45;;;3.35;;
68234;SDS011;55052;52.056;5.296;2023-05-25T12:21:48;12.07;;;3.28;;
68234;SDS011;55052;52.056;5.296;2023-05-25T12:24:17;9.13;;;3.05;;
68234;SDS011;55052;52.056;5.296;2023-05-25T12:26:51;8.80;;;3.40;;
68234;SDS011;55052;52.056;5.296;2023-05-25T12:29:23;9.60;;;3.80;;
68234;SDS011;55052;52.056;5.296;2023-05-25T12:31:51;10.35;;;3.22;;
68234;SDS011;55052;52.056;5.296;2023-05-25T12:34:18;10.55;;;3.20;;
68234;SDS011;55052;52.056;5.296;2023-05-25T12:41:58;9.57;;;2.72;;
68234;SDS011;55052;52.056;5.296;2023-05-25T12:47:11;10.18;;;2.90;;
68234;SDS011;55052;52.056;5.296;2023-05-25T12:49:41;8.95;;;2.58;;
68234;SDS011;55052;52.056;5.296;2023-05-25T12:52:09;7.45;;;2.88;;
68234;SDS011;55052;52.056;5.296;2023-05-25T12:54:43;12.15;;;3.50;;
68234;SDS011;55052;52.056;5.296;2023-05-25T12:57:11;13.68;;;3.50;;
68234;SDS011;55052;52.056;5.296;2023-05-25T12:59:40;9.25;;;3.20;;
68234;SDS011;55052;52.056;5.296;2023-05-25T13:02:09;12.75;;;3.45;;
68234;SDS011;55052;52.056;5.296;2023-05-25T13:04:37;16.95;;;4.22;;
68234;SDS011;55052;52.056;5.296;2023-05-25T13:07:06;9.80;;;3.03;;
68234;SDS011;55052;52.056;5.296;2023-05-25T13:09:34;15.47;;;3.70;;
68234;SDS011;55052;52.056;5.296;2023-05-25T13:12:02;12.70;;;3.88;;
68234;SDS011;55052;52.056;5.296;2023-05-25T13:14:30;11.77;;;3.55;;
68234;SDS011;55052;52.056;5.296;2023-05-25T13:16:56;10.90;;;3.30;;
68234;SDS011;55052;52.056;5.296;2023-05-25T13:19:24;10.23;;;3.20;;
68234;SDS011;55052;52.056;5.296;2023-05-25T13:21:52;13.18;;;3.28;;
68234;SDS011;55052;52.056;5.296;2023-05-25T13:24:20;13.73;;;3.28;;
68234;SDS011;55052;52.056;5.296;2023-05-25T13:26:47;12.35;;;3.33;;
68234;SDS011;55052;52.056;5.296;2023-05-25T13:29:16;9.48;;;2.85;;
68234;SDS011;55052;52.056;5.296;2023-05-25T13:31:43;11.48;;;3.20;;
68234;SDS011;55052;52.056;5.296;2023-05-25T13:34:10;13.60;;;3.50;;
68234;SDS011;55052;52.056;5.296;2023-05-25T13:36:38;14.23;;;3.65;;
68234;SDS011;55052;52.056;5.296;2023-05-25T13:39:04;15.18;;;3.72;;
68234;SDS011;55052;52.056;5.296;2023-05-25T13:41:32;12.57;;;4.00;;
68234;SDS011;55052;52.056;5.296;2023-05-25T13:43:59;13.05;;;3.58;;
68234;SDS011;55052;52.056;5.296;2023-05-25T13:46:26;15.57;;;4.20;;
68234;SDS011;55052;52.056;5.296;2023-05-25T13:49:00;13.32;;;3.83;;
68234;SDS011;55052;52.056;5.296;2023-05-25T13:51:27;12.43;;;4.07;;
68234;SDS011;55052;52.056;5.296;2023-05-25T13:53:54;14.40;;;3.95;;
68234;SDS011;55052;52.056;5.296;2023-05-25T13:56:21;16.75;;;3.90;;
68234;SDS011;55052;52.056;5.296;2023-05-25T13:58:48;15.25;;;3.80;;
68234;SDS011;55052;52.056;5.296;2023-05-25T14:01:15;18.30;;;4.30;;
68234;SDS011;55052;52.056;5.296;2023-05-25T14:03:42;15.50;;;4.45;;
68234;SDS011;55052;52.056;5.296;2023-05-25T14:06:09;14.50;;;3.97;;
68234;SDS011;55052;52.056;5.296;2023-05-25T14:08:36;14.48;;;3.50;;
68234;SDS011;55052;52.056;5.296;2023-05-25T14:11:03;18.98;;;4.22;;
68234;SDS011;55052;52.056;5.296;2023-05-25T14:13:30;16.75;;;3.90;;
68234;SDS011;55052;52.056;5.296;2023-05-25T14:15:58;19.88;;;4.20;;
68234;SDS011;55052;52.056;5.296;2023-05-25T14:18:26;21.52;;;4.38;;
68234;SDS011;55052;52.056;5.296;2023-05-25T14:20:53;16.13;;;3.67;;
68234;SDS011;55052;52.056;5.296;2023-05-25T14:23:20;16.98;;;4.15;;
68234;SDS011;55052;52.056;5.296;2023-05-25T14:25:46;20.45;;;4.07;;
68234;SDS011;55052;52.056;5.296;2023-05-25T14:28:15;16.75;;;4.00;;
68234;SDS011;55052;52.056;5.296;2023-05-25T14:30:41;14.80;;;3.83;;
68234;SDS011;55052;52.056;5.296;2023-05-25T14:33:08;17.52;;;4.07;;
68234;SDS011;55052;52.056;5.296;2023-05-25T14:35:39;21.63;;;4.10;;
68234;SDS011;55052;52.056;5.296;2023-05-25T14:38:08;18.33;;;4.50;;
68234;SDS011;55052;52.056;5.296;2023-05-25T14:40:35;16.60;;;4.03;;
68234;SDS011;55052;52.056;5.296;2023-05-25T14:43:02;17.50;;;4.30;;
68234;SDS011;55052;52.056;5.296;2023-05-25T14:45:29;18.15;;;4.53;;
68234;SDS011;55052;52.056;5.296;2023-05-25T14:47:55;19.38;;;4.30;;
68234;SDS011;55052;52.056;5.296;2023-05-25T14:50:40;14.35;;;4.03;;
68234;SDS011;55052;52.056;5.296;2023-05-25T14:53:09;18.30;;;4.35;;
68234;SDS011;55052;52.056;5.296;2023-05-25T14:55:36;16.33;;;3.92;;
68234;SDS011;55052;52.056;5.296;2023-05-25T14:58:03;18.80;;;4.25;;
68234;SDS011;55052;52.056;5.296;2023-05-25T15:00:30;15.10;;;3.53;;
68234;SDS011;55052;52.056;5.296;2023-05-25T15:02:56;15.57;;;4.00;;
68234;SDS011;55052;52.056;5.296;2023-05-25T15:05:23;19.88;;;4.07;;
68234;SDS011;55052;52.056;5.296;2023-05-25T15:07:50;20.02;;;4.40;;
68234;SDS011;55052;52.056;5.296;2023-05-25T15:10:17;16.73;;;4.35;;
68234;SDS011;55052;52.056;5.296;2023-05-25T15:12:44;19.05;;;4.15;;
68234;SDS011;55052;52.056;5.296;2023-05-25T15:15:10;19.85;;;4.38;;
68234;SDS011;55052;52.056;5.296;2023-05-25T15:17:38;19.90;;;4.97;;
68234;SDS011;55052;52.056;5.296;2023-05-25T15:20:05;19.02;;;4.63;;
68234;SDS011;55052;52.056;5.296;2023-05-25T15:22:32;18.73;;;4.57;;
68234;SDS011;55052;52.056;5.296;2023-05-25T15:24:58;19.40;;;4.82;;
68234;SDS011;55052;52.056;5.296;2023-05-25T15:27:27;22.05;;;4.45;;
68234;SDS011;55052;52.056;5.296;2023-05-25T15:29:54;19.55;;;4.30;;